sensor_id;sensor_type;location;lat;lon;timestamp;P1;durP1;ratioP1;P2;durP2;ratioP2
14520;SDS011;7347;50.844;4.490;2022-11-15T08:25:05;1.87;;;0.93;;
14520;SDS011;7347;50.844;4.490;2022-11-15T08:27:32;3.57;;;1.17;;
14520;SDS011;7347;50.844;4.490;2022-11-15T08:29:59;3.17;;;0.93;;
14520;SDS011;7347;50.844;4.490;2022-11-15T08:32:26;2.50;;;0.90;;
14520;SDS011;7347;50.844;4.490;2022-11-15T08:34:53;3.07;;;0.87;;
14520;SDS011;7347;50.844;4.490;2022-11-15T08:37:20;1.63;;;0.70;;
14520;SDS011;7347;50.844;4.490;2022-11-15T08:39:46;1.73;;;0.70;;
14520;SDS011;7347;50.844;4.490;2022-11-15T08:42:14;3.03;;;1.10;;
14520;SDS011;7347;50.844;4.490;2022-11-15T08:44:41;1.43;;;0.70;;
14520;SDS011;7347;50.844;4.490;2022-11-15T08:47:08;1.50;;;0.80;;
14520;SDS011;7347;50.844;4.490;2022-11-15T08:49:37;2.43;;;0.90;;
14520;SDS011;7347;50.844;4.490;2022-11-15T08:52:04;2.67;;;0.80;;
14520;SDS011;7347;50.844;4.490;2022-11-15T08:54:31;2.60;;;0.70;;
14520;SDS011;7347;50.844;4.490;2022-11-15T08:56:58;2.60;;;0.70;;
14520;SDS011;7347;50.844;4.490;2022-11-15T08:59:26;2.17;;;0.40;;
14520;SDS011;7347;50.844;4.490;2022-11-15T09:01:52;2.67;;;0.63;;
14520;SDS011;7347;50.844;4.490;2022-11-15T09:04:19;1.30;;;0.60;;
14520;SDS011;7347;50.844;4.490;2022-11-15T09:06:46;0.60;;;0.50;;
14520;SDS011;7347;50.844;4.490;2022-11-15T09:09:13;3.23;;;0.63;;
14520;SDS011;7347;50.844;4.490;2022-11-15T09:11:40;1.67;;;0.77;;
14520;SDS011;7347;50.844;4.490;2022-11-15T09:14:07;2.23;;;0.60;;
14520;SDS011;7347;50.844;4.490;2022-11-15T09:16:37;2.40;;;0.47;;
14520;SDS011;7347;50.844;4.490;2022-11-15T09:19:04;1.70;;;0.63;;
14520;SDS011;7347;50.844;4.490;2022-11-15T09:21:31;2.73;;;0.50;;
14520;SDS011;7347;50.844;4.490;2022-11-15T09:23:58;2.73;;;0.80;;
14520;SDS011;7347;50.844;4.490;2022-11-15T09:26:25;1.83;;;0.70;;
14520;SDS011;7347;50.844;4.490;2022-11-15T09:28:52;2.60;;;0.50;;
14520;SDS011;7347;50.844;4.490;2022-11-15T09:31:19;2.77;;;0.50;;
14520;SDS011;7347;50.844;4.490;2022-11-15T09:33:47;0.80;;;0.50;;
14520;SDS011;7347;50.844;4.490;2022-11-15T09:36:13;1.20;;;0.63;;
14520;SDS011;7347;50.844;4.490;2022-11-15T09:38:41;2.23;;;0.50;;
14520;SDS011;7347;50.844;4.490;2022-11-15T09:41:15;1.77;;;0.60;;
14520;SDS011;7347;50.844;4.490;2022-11-15T09:44:04;5.40;;;0.50;;
14520;SDS011;7347;50.844;4.490;2022-11-15T09:46:46;1.77;;;0.50;;
14520;SDS011;7347;50.844;4.490;2022-11-15T09:49:21;2.30;;;0.50;;
14520;SDS011;7347;50.844;4.490;2022-11-15T09:51:49;3.53;;;1.00;;
14520;SDS011;7347;50.844;4.490;2022-11-15T09:54:21;5.40;;;0.70;;
14520;SDS011;7347;50.844;4.490;2022-11-15T09:56:52;1.57;;;0.50;;
14520;SDS011;7347;50.844;4.490;2022-11-15T09:59:33;3.97;;;0.47;;
14520;SDS011;7347;50.844;4.490;2022-11-15T10:02:22;0.63;;;0.40;;
14520;SDS011;7347;50.844;4.490;2022-11-15T10:05:00;1.00;;;0.50;;
14520;SDS011;7347;50.844;4.490;2022-11-15T10:07:30;2.03;;;0.63;;
14520;SDS011;7347;50.844;4.490;2022-11-15T10:10:08;2.30;;;0.47;;
14520;SDS011;7347;50.844;4.490;2022-11-15T10:12:41;1.10;;;0.47;;
14520;SDS011;7347;50.844;4.490;2022-11-15T10:15:13;3.03;;;0.40;;
14520;SDS011;7347;50.844;4.490;2022-11-15T10:20:44;2.93;;;0.53;;
14520;SDS011;7347;50.844;4.490;2022-11-15T10:23:14;1.07;;;0.43;;
14520;SDS011;7347;50.844;4.490;2022-11-15T10:25:43;4.10;;;0.50;;
14520;SDS011;7347;50.844;4.490;2022-11-15T10:28:17;1.13;;;0.53;;
14520;SDS011;7347;50.844;4.490;2022-11-15T10:30:49;3.70;;;0.70;;
14520;SDS011;7347;50.844;4.490;2022-11-15T10:33:22;1.87;;;0.60;;
14520;SDS011;7347;50.844;4.490;2022-11-15T10:38:54;2.47;;;0.50;;
14520;SDS011;7347;50.844;4.490;2022-11-15T10:41:27;0.53;;;0.30;;
14520;SDS011;7347;50.844;4.490;2022-11-15T10:44:17;0.47;;;0.30;;
14520;SDS011;7347;50.844;4.490;2022-11-15T10:49:53;1.80;;;0.40;;
14520;SDS011;7347;50.844;4.490;2022-11-15T10:52:23;1.37;;;0.43;;
14520;SDS011;7347;50.844;4.490;2022-11-15T10:54:52;0.50;;;0.30;;
14520;SDS011;7347;50.844;4.490;2022-11-15T10:57:23;2.10;;;0.40;;
14520;SDS011;7347;50.844;4.490;2022-11-15T10:59:53;2.00;;;0.47;;
14520;SDS011;7347;50.844;4.490;2022-11-15T11:02:26;0.60;;;0.30;;
14520;SDS011;7347;50.844;4.490;2022-11-15T11:04:55;1.97;;;0.40;;
14520;SDS011;7347;50.844;4.490;2022-11-15T11:07:24;2.00;;;0.30;;
14520;SDS011;7347;50.844;4.490;2022-11-15T11:09:56;2.90;;;0.50;;
14520;SDS011;7347;50.844;4.490;2022-11-15T11:12:28;3.70;;;0.43;;
14520;SDS011;7347;50.844;4.490;2022-11-15T11:14:57;0.87;;;0.40;;
14520;SDS011;7347;50.844;4.490;2022-11-15T11:17:29;1.60;;;0.50;;
14520;SDS011;7347;50.844;4.490;2022-11-15T11:20:08;0.60;;;0.40;;
14520;SDS011;7347;50.844;4.490;2022-11-15T11:22:47;1.57;;;0.60;;
14520;SDS011;7347;50.844;4.490;2022-11-15T11:25:29;2.57;;;0.50;;
14520;SDS011;7347;50.844;4.490;2022-11-15T11:28:05;1.67;;;0.40;;
14520;SDS011;7347;50.844;4.490;2022-11-15T11:30:56;0.90;;;0.60;;
14520;SDS011;7347;50.844;4.490;2022-11-15T11:33:33;2.97;;;0.40;;
14520;SDS011;7347;50.844;4.490;2022-11-15T11:36:11;3.33;;;0.63;;
14520;SDS011;7347;50.844;4.490;2022-11-15T11:38:53;1.77;;;0.80;;
14520;SDS011;7347;50.844;4.490;2022-11-15T11:41:43;0.73;;;0.30;;
14520;SDS011;7347;50.844;4.490;2022-11-15T11:44:24;1.40;;;0.50;;
14520;SDS011;7347;50.844;4.490;2022-11-15T11:46:59;4.87;;;0.40;;
14520;SDS011;7347;50.844;4.490;2022-11-15T11:49:29;2.40;;;0.53;;
14520;SDS011;7347;50.844;4.490;2022-11-15T11:52:02;2.20;;;0.40;;
14520;SDS011;7347;50.844;4.490;2022-11-15T11:54:38;2.47;;;0.70;;
14520;SDS011;7347;50.844;4.490;2022-11-15T11:57:14;2.17;;;0.30;;
14520;SDS011;7347;50.844;4.490;2022-11-15T11:59:50;3.33;;;0.40;;
14520;SDS011;7347;50.844;4.490;2022-11-15T12:02:24;0.83;;;0.30;;
14520;SDS011;7347;50.844;4.490;2022-11-15T12:04:56;1.30;;;0.50;;
14520;SDS011;7347;50.844;4.490;2022-11-15T12:07:29;2.50;;;0.40;;
14520;SDS011;7347;50.844;4.490;2022-11-15T12:10:01;1.27;;;0.30;;
14520;SDS011;7347;50.844;4.490;2022-11-15T12:12:32;1.17;;;0.30;;
14520;SDS011;7347;50.844;4.490;2022-11-15T12:15:09;1.73;;;0.40;;
14520;SDS011;7347;50.844;4.490;2022-11-15T12:17:40;2.40;;;0.40;;
14520;SDS011;7347;50.844;4.490;2022-11-15T12:20:13;2.90;;;0.80;;
14520;SDS011;7347;50.844;4.490;2022-11-15T12:22:42;3.40;;;0.40;;
14520;SDS011;7347;50.844;4.490;2022-11-15T12:25:16;2.70;;;0.40;;
14520;SDS011;7347;50.844;4.490;2022-11-15T12:27:47;2.23;;;0.40;;
14520;SDS011;7347;50.844;4.490;2022-11-15T12:30:19;0.67;;;0.30;;
14520;SDS011;7347;50.844;4.490;2022-11-15T12:32:49;1.40;;;0.40;;
14520;SDS011;7347;50.844;4.490;2022-11-15T12:35:21;1.87;;;0.40;;
14520;SDS011;7347;50.844;4.490;2022-11-15T12:37:51;1.40;;;0.30;;
14520;SDS011;7347;50.844;4.490;2022-11-15T12:40:29;0.87;;;0.40;;
14520;SDS011;7347;50.844;4.490;2022-11-15T12:46:04;2.00;;;0.60;;
14520;SDS011;7347;50.844;4.490;2022-11-15T12:48:46;1.57;;;0.27;;
14520;SDS011;7347;50.844;4.490;2022-11-15T12:51:16;2.43;;;0.30;;
14520;SDS011;7347;50.844;4.490;2022-11-15T12:53:45;0.77;;;0.40;;
14520;SDS011;7347;50.844;4.490;2022-11-15T12:58:59;2.40;;;0.40;;
14520;SDS011;7347;50.844;4.490;2022-11-15T13:04:32;1.20;;;0.50;;
14520;SDS011;7347;50.844;4.490;2022-11-15T13:07:00;3.40;;;0.30;;
14520;SDS011;7347;50.844;4.490;2022-11-15T13:18:34;0.77;;;0.30;;
14520;SDS011;7347;50.844;4.490;2022-11-15T13:21:04;0.37;;;0.23;;
14520;SDS011;7347;50.844;4.490;2022-11-15T13:24:02;2.20;;;0.57;;
14520;SDS011;7347;50.844;4.490;2022-11-15T13:26:30;1.73;;;0.47;;
14520;SDS011;7347;50.844;4.490;2022-11-15T13:28:58;3.23;;;0.50;;
14520;SDS011;7347;50.844;4.490;2022-11-15T13:31:29;1.40;;;0.50;;
14520;SDS011;7347;50.844;4.490;2022-11-15T13:34:02;0.90;;;0.40;;
14520;SDS011;7347;50.844;4.490;2022-11-15T13:36:39;1.20;;;0.40;;
14520;SDS011;7347;50.844;4.490;2022-11-15T13:39:12;0.70;;;0.40;;
14520;SDS011;7347;50.844;4.490;2022-11-15T13:41:51;1.80;;;0.63;;
14520;SDS011;7347;50.844;4.490;2022-11-15T13:44:20;3.93;;;0.50;;
14520;SDS011;7347;50.844;4.490;2022-11-15T13:46:48;2.40;;;0.40;;
14520;SDS011;7347;50.844;4.490;2022-11-15T13:49:28;3.00;;;0.70;;
14520;SDS011;7347;50.844;4.490;2022-11-15T13:51:56;1.00;;;0.50;;
14520;SDS011;7347;50.844;4.490;2022-11-15T13:54:23;0.50;;;0.30;;
14520;SDS011;7347;50.844;4.490;2022-11-15T13:56:55;1.37;;;0.50;;
14520;SDS011;7347;50.844;4.490;2022-11-15T13:59:26;0.77;;;0.40;;
14520;SDS011;7347;50.844;4.490;2022-11-15T14:01:57;0.80;;;0.50;;
14520;SDS011;7347;50.844;4.490;2022-11-15T14:04:26;1.57;;;0.50;;
14520;SDS011;7347;50.844;4.490;2022-11-15T14:06:58;1.57;;;0.37;;
14520;SDS011;7347;50.844;4.490;2022-11-15T14:09:34;1.87;;;0.70;;
14520;SDS011;7347;50.844;4.490;2022-11-15T14:12:20;1.20;;;0.50;;
14520;SDS011;7347;50.844;4.490;2022-11-15T14:14:51;1.30;;;0.60;;
14520;SDS011;7347;50.844;4.490;2022-11-15T14:17:19;2.30;;;0.50;;
14520;SDS011;7347;50.844;4.490;2022-11-15T14:19:48;0.73;;;0.53;;
14520;SDS011;7347;50.844;4.490;2022-11-15T14:22:18;0.90;;;0.60;;
14520;SDS011;7347;50.844;4.490;2022-11-15T14:24:47;1.97;;;0.60;;
14520;SDS011;7347;50.844;4.490;2022-11-15T14:27:39;0.70;;;0.40;;
14520;SDS011;7347;50.844;4.490;2022-11-15T14:30:09;1.20;;;0.70;;
14520;SDS011;7347;50.844;4.490;2022-11-15T14:32:41;0.97;;;0.57;;
14520;SDS011;7347;50.844;4.490;2022-11-15T14:35:12;2.03;;;0.80;;
14520;SDS011;7347;50.844;4.490;2022-11-15T14:37:42;0.97;;;0.40;;
14520;SDS011;7347;50.844;4.490;2022-11-15T14:40:12;1.97;;;0.50;;
14520;SDS011;7347;50.844;4.490;2022-11-15T14:42:40;0.70;;;0.40;;
14520;SDS011;7347;50.844;4.490;2022-11-15T14:45:10;1.23;;;0.67;;
14520;SDS011;7347;50.844;4.490;2022-11-15T14:47:39;0.77;;;0.43;;
14520;SDS011;7347;50.844;4.490;2022-11-15T14:50:06;1.17;;;0.53;;
14520;SDS011;7347;50.844;4.490;2022-11-15T14:52:37;0.73;;;0.40;;
14520;SDS011;7347;50.844;4.490;2022-11-15T14:55:10;0.93;;;0.47;;
14520;SDS011;7347;50.844;4.490;2022-11-15T14:57:41;1.53;;;0.50;;
14520;SDS011;7347;50.844;4.490;2022-11-15T15:00:08;1.27;;;0.50;;
14520;SDS011;7347;50.844;4.490;2022-11-15T15:02:37;1.73;;;0.50;;
14520;SDS011;7347;50.844;4.490;2022-11-15T15:05:10;1.17;;;0.67;;
14520;SDS011;7347;50.844;4.490;2022-11-15T15:07:40;0.67;;;0.40;;
14520;SDS011;7347;50.844;4.490;2022-11-15T15:10:07;3.80;;;0.83;;
14520;SDS011;7347;50.844;4.490;2022-11-15T15:12:35;0.87;;;0.60;;
14520;SDS011;7347;50.844;4.490;2022-11-15T15:15:01;1.03;;;0.50;;
14520;SDS011;7347;50.844;4.490;2022-11-15T15:17:29;2.70;;;0.60;;
14520;SDS011;7347;50.844;4.490;2022-11-15T15:19:57;1.03;;;0.60;;
14520;SDS011;7347;50.844;4.490;2022-11-15T15:22:24;6.13;;;0.60;;
14520;SDS011;7347;50.844;4.490;2022-11-15T15:24:54;1.13;;;0.60;;
14520;SDS011;7347;50.844;4.490;2022-11-15T15:27:21;1.90;;;0.77;;
14520;SDS011;7347;50.844;4.490;2022-11-15T15:29:48;1.77;;;0.90;;
14520;SDS011;7347;50.844;4.490;2022-11-15T15:32:14;2.03;;;0.90;;
14520;SDS011;7347;50.844;4.490;2022-11-15T15:34:41;1.50;;;0.70;;
14520;SDS011;7347;50.844;4.490;2022-11-15T15:37:11;3.63;;;0.77;;
14520;SDS011;7347;50.844;4.490;2022-11-15T15:39:48;1.67;;;0.80;;
14520;SDS011;7347;50.844;4.490;2022-11-15T15:42:15;1.63;;;0.70;;
14520;SDS011;7347;50.844;4.490;2022-11-15T15:44:42;1.70;;;0.73;;
14520;SDS011;7347;50.844;4.490;2022-11-15T15:47:10;1.97;;;0.90;;
14520;SDS011;7347;50.844;4.490;2022-11-15T15:49:37;3.07;;;1.10;;
14520;SDS011;7347;50.844;4.490;2022-11-15T15:52:04;1.23;;;0.70;;
14520;SDS011;7347;50.844;4.490;2022-11-15T15:54:32;1.60;;;0.83;;
14520;SDS011;7347;50.844;4.490;2022-11-15T15:56:59;3.60;;;1.03;;
14520;SDS011;7347;50.844;4.490;2022-11-15T15:59:26;1.03;;;0.80;;
14520;SDS011;7347;50.844;4.490;2022-11-15T16:01:53;3.00;;;1.00;;
14520;SDS011;7347;50.844;4.490;2022-11-15T16:04:20;1.40;;;0.70;;
14520;SDS011;7347;50.844;4.490;2022-11-15T16:06:46;1.73;;;1.00;;
14520;SDS011;7347;50.844;4.490;2022-11-15T16:09:15;3.13;;;1.10;;
14520;SDS011;7347;50.844;4.490;2022-11-15T16:11:45;2.17;;;1.10;;
14520;SDS011;7347;50.844;4.490;2022-11-15T16:14:12;4.03;;;1.80;;
14520;SDS011;7347;50.844;4.490;2022-11-15T16:16:39;2.17;;;1.40;;
14520;SDS011;7347;50.844;4.490;2022-11-15T16:19:06;4.77;;;1.67;;
14520;SDS011;7347;50.844;4.490;2022-11-15T16:21:34;2.73;;;1.30;;
14520;SDS011;7347;50.844;4.490;2022-11-15T16:24:01;1.63;;;1.10;;
14520;SDS011;7347;50.844;4.490;2022-11-15T16:26:29;5.27;;;1.87;;
14520;SDS011;7347;50.844;4.490;2022-11-15T16:28:58;2.57;;;1.43;;
14520;SDS011;7347;50.844;4.490;2022-11-15T16:31:24;1.50;;;1.00;;
14520;SDS011;7347;50.844;4.490;2022-11-15T16:33:51;1.90;;;1.10;;
14520;SDS011;7347;50.844;4.490;2022-11-15T16:36:19;3.33;;;1.10;;
14520;SDS011;7347;50.844;4.490;2022-11-15T16:38:47;1.90;;;1.20;;
14520;SDS011;7347;50.844;4.490;2022-11-15T16:41:14;1.77;;;1.00;;
14520;SDS011;7347;50.844;4.490;2022-11-15T16:43:43;2.23;;;1.50;;
14520;SDS011;7347;50.844;4.490;2022-11-15T16:46:14;2.90;;;1.80;;
14520;SDS011;7347;50.844;4.490;2022-11-15T16:48:43;3.50;;;1.67;;
14520;SDS011;7347;50.844;4.490;2022-11-15T16:51:10;3.40;;;1.37;;
14520;SDS011;7347;50.844;4.490;2022-11-15T16:53:38;1.53;;;0.93;;
14520;SDS011;7347;50.844;4.490;2022-11-15T16:56:12;2.53;;;1.20;;
14520;SDS011;7347;50.844;4.490;2022-11-15T16:58:45;1.40;;;1.13;;
14520;SDS011;7347;50.844;4.490;2022-11-15T17:01:16;1.40;;;1.07;;
14520;SDS011;7347;50.844;4.490;2022-11-15T17:03:45;1.10;;;0.90;;
14520;SDS011;7347;50.844;4.490;2022-11-15T17:06:12;1.53;;;1.10;;
14520;SDS011;7347;50.844;4.490;2022-11-15T17:08:39;2.40;;;1.40;;
14520;SDS011;7347;50.844;4.490;2022-11-15T17:11:06;2.93;;;1.30;;
14520;SDS011;7347;50.844;4.490;2022-11-15T17:13:33;1.53;;;1.10;;
14520;SDS011;7347;50.844;4.490;2022-11-15T17:16:04;1.43;;;1.13;;
14520;SDS011;7347;50.844;4.490;2022-11-15T17:18:34;3.13;;;1.10;;
14520;SDS011;7347;50.844;4.490;2022-11-15T17:21:05;4.17;;;1.33;;
14520;SDS011;7347;50.844;4.490;2022-11-15T17:23:32;2.03;;;1.30;;
14520;SDS011;7347;50.844;4.490;2022-11-15T17:25:59;3.00;;;1.30;;
14520;SDS011;7347;50.844;4.490;2022-11-15T17:28:28;1.70;;;1.20;;
14520;SDS011;7347;50.844;4.490;2022-11-15T17:30:55;4.60;;;1.77;;
14520;SDS011;7347;50.844;4.490;2022-11-15T17:33:22;3.07;;;1.30;;
14520;SDS011;7347;50.844;4.490;2022-11-15T17:35:55;4.00;;;1.33;;
14520;SDS011;7347;50.844;4.490;2022-11-15T17:38:22;2.77;;;1.37;;
14520;SDS011;7347;50.844;4.490;2022-11-15T17:40:58;3.00;;;1.27;;
14520;SDS011;7347;50.844;4.490;2022-11-15T17:43:26;2.63;;;2.03;;
14520;SDS011;7347;50.844;4.490;2022-11-15T17:45:53;3.13;;;1.80;;
14520;SDS011;7347;50.844;4.490;2022-11-15T17:48:20;2.10;;;1.30;;
14520;SDS011;7347;50.844;4.490;2022-11-15T17:50:54;2.20;;;1.40;;
14520;SDS011;7347;50.844;4.490;2022-11-15T17:53:23;1.93;;;1.23;;
14520;SDS011;7347;50.844;4.490;2022-11-15T17:55:50;2.97;;;1.63;;
14520;SDS011;7347;50.844;4.490;2022-11-15T17:58:18;2.70;;;1.63;;
14520;SDS011;7347;50.844;4.490;2022-11-15T18:00:45;3.10;;;1.60;;
14520;SDS011;7347;50.844;4.490;2022-11-15T18:03:12;1.70;;;1.37;;
14520;SDS011;7347;50.844;4.490;2022-11-15T18:05:40;2.53;;;1.73;;
14520;SDS011;7347;50.844;4.490;2022-11-15T18:08:09;4.10;;;2.30;;
14520;SDS011;7347;50.844;4.490;2022-11-15T18:10:37;2.80;;;1.57;;
14520;SDS011;7347;50.844;4.490;2022-11-15T18:13:04;2.57;;;1.60;;
14520;SDS011;7347;50.844;4.490;2022-11-15T18:15:31;3.47;;;1.67;;
14520;SDS011;7347;50.844;4.490;2022-11-15T18:17:58;2.37;;;1.63;;
14520;SDS011;7347;50.844;4.490;2022-11-15T18:20:24;2.30;;;1.53;;
14520;SDS011;7347;50.844;4.490;2022-11-15T18:22:51;3.77;;;1.50;;
14520;SDS011;7347;50.844;4.490;2022-11-15T18:25:20;2.70;;;1.70;;
14520;SDS011;7347;50.844;4.490;2022-11-15T18:27:47;1.90;;;1.50;;
14520;SDS011;7347;50.844;4.490;2022-11-15T18:30:19;2.03;;;1.50;;
14520;SDS011;7347;50.844;4.490;2022-11-15T18:32:46;5.10;;;1.73;;
14520;SDS011;7347;50.844;4.490;2022-11-15T18:35:13;3.93;;;1.63;;
14520;SDS011;7347;50.844;4.490;2022-11-15T18:37:40;4.07;;;1.97;;
14520;SDS011;7347;50.844;4.490;2022-11-15T18:40:07;5.73;;;1.80;;
14520;SDS011;7347;50.844;4.490;2022-11-15T18:42:36;3.10;;;1.40;;
14520;SDS011;7347;50.844;4.490;2022-11-15T18:45:03;5.70;;;2.17;;
14520;SDS011;7347;50.844;4.490;2022-11-15T18:47:30;3.23;;;1.67;;
14520;SDS011;7347;50.844;4.490;2022-11-15T18:49:57;6.27;;;2.90;;
14520;SDS011;7347;50.844;4.490;2022-11-15T18:52:24;7.27;;;2.87;;
14520;SDS011;7347;50.844;4.490;2022-11-15T18:54:50;3.27;;;1.93;;
14520;SDS011;7347;50.844;4.490;2022-11-15T18:57:17;3.80;;;2.00;;
14520;SDS011;7347;50.844;4.490;2022-11-15T18:59:45;2.77;;;2.03;;
14520;SDS011;7347;50.844;4.490;2022-11-15T19:02:12;2.93;;;1.73;;
14520;SDS011;7347;50.844;4.490;2022-11-15T19:04:39;4.30;;;2.10;;
14520;SDS011;7347;50.844;4.490;2022-11-15T19:07:06;3.10;;;2.00;;
14520;SDS011;7347;50.844;4.490;2022-11-15T19:09:32;2.87;;;1.90;;
14520;SDS011;7347;50.844;4.490;2022-11-15T19:12:00;5.57;;;2.07;;
14520;SDS011;7347;50.844;4.490;2022-11-15T19:14:27;3.60;;;2.00;;
14520;SDS011;7347;50.844;4.490;2022-11-15T19:16:55;6.07;;;2.13;;
14520;SDS011;7347;50.844;4.490;2022-11-15T19:19:22;6.30;;;3.57;;
14520;SDS011;7347;50.844;4.490;2022-11-15T19:21:52;4.77;;;2.80;;
14520;SDS011;7347;50.844;4.490;2022-11-15T19:24:21;3.33;;;2.10;;
14520;SDS011;7347;50.844;4.490;2022-11-15T19:26:47;6.83;;;2.90;;
14520;SDS011;7347;50.844;4.490;2022-11-15T19:29:14;6.77;;;3.27;;
14520;SDS011;7347;50.844;4.490;2022-11-15T19:31:42;3.50;;;2.13;;
14520;SDS011;7347;50.844;4.490;2022-11-15T19:34:10;4.70;;;2.30;;
14520;SDS011;7347;50.844;4.490;2022-11-15T19:36:38;3.90;;;2.17;;
14520;SDS011;7347;50.844;4.490;2022-11-15T19:39:06;3.27;;;2.13;;
14520;SDS011;7347;50.844;4.490;2022-11-15T19:41:36;2.63;;;1.87;;
14520;SDS011;7347;50.844;4.490;2022-11-15T19:44:04;2.07;;;1.43;;
14520;SDS011;7347;50.844;4.490;2022-11-15T19:46:31;4.03;;;1.87;;
14520;SDS011;7347;50.844;4.490;2022-11-15T19:48:58;1.80;;;1.27;;
14520;SDS011;7347;50.844;4.490;2022-11-15T19:51:27;3.17;;;1.77;;
14520;SDS011;7347;50.844;4.490;2022-11-15T19:53:56;3.10;;;2.00;;
14520;SDS011;7347;50.844;4.490;2022-11-15T19:56:25;3.10;;;1.67;;
14520;SDS011;7347;50.844;4.490;2022-11-15T19:58:52;3.03;;;1.60;;
14520;SDS011;7347;50.844;4.490;2022-11-15T20:01:21;3.00;;;1.70;;
14520;SDS011;7347;50.844;4.490;2022-11-15T20:03:50;2.87;;;1.90;;
14520;SDS011;7347;50.844;4.490;2022-11-15T20:06:19;3.93;;;1.83;;
14520;SDS011;7347;50.844;4.490;2022-11-15T20:08:48;2.43;;;1.83;;
14520;SDS011;7347;50.844;4.490;2022-11-15T20:11:15;3.33;;;2.00;;
14520;SDS011;7347;50.844;4.490;2022-11-15T20:13:43;3.80;;;2.13;;
14520;SDS011;7347;50.844;4.490;2022-11-15T20:16:13;3.33;;;1.60;;
14520;SDS011;7347;50.844;4.490;2022-11-15T20:18:41;2.83;;;2.00;;
14520;SDS011;7347;50.844;4.490;2022-11-15T20:21:08;3.40;;;2.07;;
14520;SDS011;7347;50.844;4.490;2022-11-15T20:23:36;3.17;;;2.10;;
14520;SDS011;7347;50.844;4.490;2022-11-15T20:26:04;3.83;;;2.10;;
14520;SDS011;7347;50.844;4.490;2022-11-15T20:28:32;3.03;;;2.10;;
14520;SDS011;7347;50.844;4.490;2022-11-15T20:31:00;4.00;;;2.00;;
14520;SDS011;7347;50.844;4.490;2022-11-15T20:33:27;3.23;;;1.60;;
14520;SDS011;7347;50.844;4.490;2022-11-15T20:35:54;4.03;;;2.20;;
14520;SDS011;7347;50.844;4.490;2022-11-15T20:38:21;3.07;;;2.17;;
14520;SDS011;7347;50.844;4.490;2022-11-15T20:40:49;3.30;;;1.87;;
14520;SDS011;7347;50.844;4.490;2022-11-15T20:43:18;3.13;;;1.53;;
14520;SDS011;7347;50.844;4.490;2022-11-15T20:45:45;2.43;;;1.40;;
14520;SDS011;7347;50.844;4.490;2022-11-15T20:48:14;2.60;;;1.70;;
14520;SDS011;7347;50.844;4.490;2022-11-15T20:50:41;3.20;;;1.77;;
14520;SDS011;7347;50.844;4.490;2022-11-15T20:53:10;3.33;;;1.83;;
14520;SDS011;7347;50.844;4.490;2022-11-15T20:55:38;3.37;;;1.70;;
14520;SDS011;7347;50.844;4.490;2022-11-15T20:58:06;3.83;;;2.10;;
14520;SDS011;7347;50.844;4.490;2022-11-15T21:00:34;3.37;;;1.80;;
14520;SDS011;7347;50.844;4.490;2022-11-15T21:03:02;4.20;;;2.10;;
14520;SDS011;7347;50.844;4.490;2022-11-15T21:05:31;3.00;;;1.83;;
14520;SDS011;7347;50.844;4.490;2022-11-15T21:07:59;2.43;;;1.70;;
14520;SDS011;7347;50.844;4.490;2022-11-15T21:10:25;3.47;;;1.83;;
14520;SDS011;7347;50.844;4.490;2022-11-15T21:13:10;3.43;;;1.77;;
14520;SDS011;7347;50.844;4.490;2022-11-15T21:15:38;2.77;;;1.80;;
14520;SDS011;7347;50.844;4.490;2022-11-15T21:18:04;5.13;;;2.30;;
14520;SDS011;7347;50.844;4.490;2022-11-15T21:20:31;4.27;;;2.37;;
14520;SDS011;7347;50.844;4.490;2022-11-15T21:22:58;3.20;;;1.80;;
14520;SDS011;7347;50.844;4.490;2022-11-15T21:25:25;4.13;;;2.23;;
14520;SDS011;7347;50.844;4.490;2022-11-15T21:27:52;6.67;;;2.20;;
14520;SDS011;7347;50.844;4.490;2022-11-15T21:30:19;3.13;;;2.10;;
14520;SDS011;7347;50.844;4.490;2022-11-15T21:32:47;2.40;;;1.80;;
14520;SDS011;7347;50.844;4.490;2022-11-15T21:35:14;3.17;;;1.90;;
14520;SDS011;7347;50.844;4.490;2022-11-15T21:37:41;3.17;;;2.40;;
14520;SDS011;7347;50.844;4.490;2022-11-15T21:40:08;2.57;;;1.70;;
14520;SDS011;7347;50.844;4.490;2022-11-15T21:42:35;2.33;;;1.60;;
14520;SDS011;7347;50.844;4.490;2022-11-15T21:45:02;2.90;;;2.10;;
14520;SDS011;7347;50.844;4.490;2022-11-15T21:47:30;3.80;;;2.10;;
14520;SDS011;7347;50.844;4.490;2022-11-15T21:49:58;6.47;;;2.20;;
14520;SDS011;7347;50.844;4.490;2022-11-15T21:52:25;3.43;;;2.27;;
14520;SDS011;7347;50.844;4.490;2022-11-15T21:54:51;4.63;;;2.17;;
14520;SDS011;7347;50.844;4.490;2022-11-15T21:57:18;5.47;;;2.20;;
14520;SDS011;7347;50.844;4.490;2022-11-15T21:59:45;7.37;;;2.57;;
14520;SDS011;7347;50.844;4.490;2022-11-15T22:02:29;5.20;;;2.53;;
14520;SDS011;7347;50.844;4.490;2022-11-15T22:04:57;4.00;;;1.70;;
14520;SDS011;7347;50.844;4.490;2022-11-15T22:07:24;3.03;;;1.93;;
14520;SDS011;7347;50.844;4.490;2022-11-15T22:09:51;6.93;;;2.27;;
14520;SDS011;7347;50.844;4.490;2022-11-15T22:12:17;4.30;;;1.70;;
14520;SDS011;7347;50.844;4.490;2022-11-15T22:14:44;2.93;;;1.63;;
